SEYTG ESSA-ESSB
Flight info
| Callsign | SEYTG |
|---|---|
| Flight time | 0h 7m |
| Altitude | 20000 |
| Route | NOSLI |
| Aircraft | HDJT/L-SABDGRWY/H |
Departure
| Time | 2026-05-07 18:34 |
|---|---|
| Airport | Stockholm-Arlanda Airport (ESSA) |
Arrival
| Time | 2026-05-07 18:41 |
|---|---|
| Airport | Stockholm-Bromma Airport (ESSB) |
| Time | Latitude | Longitude | Altitude | Speed | Heading |
|---|---|---|---|---|---|
| 2026-05-07 18:23 | 59.63785 | 17.91946 | 101 ft | 0 kts | 157° |
| 2026-05-07 18:30 | 59.63784 | 17.91946 | 101 ft | 0 kts | 162° |
| 2026-05-07 18:30 | 59.63796 | 17.91881 | 102 ft | 20 kts | 5° |
| 2026-05-07 18:31 | 59.63979 | 17.91968 | 109 ft | 32 kts | 10° |
| 2026-05-07 18:31 | 59.64145 | 17.91934 | 108 ft | 18 kts | 279° |
| 2026-05-07 18:31 | 59.64269 | 17.91882 | 108 ft | 21 kts | 10° |
| 2026-05-07 18:31 | 59.64456 | 17.91949 | 106 ft | 34 kts | 11° |
| 2026-05-07 18:32 | 59.64726 | 17.92044 | 102 ft | 43 kts | 11° |
| 2026-05-07 18:32 | 59.65019 | 17.92150 | 101 ft | 42 kts | 10° |
| 2026-05-07 18:32 | 59.65301 | 17.92253 | 100 ft | 43 kts | 11° |
| 2026-05-07 18:32 | 59.65592 | 17.92359 | 99 ft | 42 kts | 10° |
| 2026-05-07 18:33 | 59.65855 | 17.92453 | 101 ft | 24 kts | 358° |
| 2026-05-07 18:33 | 59.65923 | 17.92192 | 109 ft | 28 kts | 266° |
| 2026-05-07 18:33 | 59.65771 | 17.92067 | 105 ft | 28 kts | 191° |
| 2026-05-07 18:33 | 59.65272 | 17.91882 | 100 ft | 122 kts | 190° |
| 2026-05-07 18:34 | 59.64333 | 17.91467 | 488 ft | 151 kts | 193° |
| 2026-05-07 18:34 | 59.63340 | 17.90902 | 1429 ft | 143 kts | 194° |
| 2026-05-07 18:34 | 59.62376 | 17.90375 | 2278 ft | 145 kts | 193° |
| 2026-05-07 18:34 | 59.61386 | 17.89844 | 3052 ft | 150 kts | 194° |
| 2026-05-07 18:35 | 59.60381 | 17.89210 | 3866 ft | 154 kts | 211° |
| 2026-05-07 18:35 | 59.59544 | 17.87864 | 4696 ft | 158 kts | 219° |
| 2026-05-07 18:35 | 59.58607 | 17.86485 | 5023 ft | 186 kts | 217° |
| 2026-05-07 18:35 | 59.57533 | 17.84918 | 5026 ft | 195 kts | 217° |
| 2026-05-07 18:36 | 59.56453 | 17.83353 | 5025 ft | 189 kts | 218° |
| 2026-05-07 18:36 | 59.55369 | 17.81879 | 5023 ft | 190 kts | 216° |
| 2026-05-07 18:36 | 59.54277 | 17.80346 | 4716 ft | 195 kts | 217° |
| 2026-05-07 18:36 | 59.53188 | 17.78732 | 4378 ft | 197 kts | 218° |
| 2026-05-07 18:37 | 59.52087 | 17.77091 | 4036 ft | 200 kts | 218° |
| 2026-05-07 18:37 | 59.50975 | 17.75428 | 3698 ft | 201 kts | 217° |
| 2026-05-07 18:37 | 59.49861 | 17.73748 | 3372 ft | 202 kts | 217° |
| 2026-05-07 18:37 | 59.48750 | 17.72057 | 3032 ft | 202 kts | 217° |
| 2026-05-07 18:38 | 59.47647 | 17.70360 | 2702 ft | 201 kts | 217° |
| 2026-05-07 18:38 | 59.46398 | 17.69377 | 2519 ft | 190 kts | 180° |
| 2026-05-07 18:38 | 59.45174 | 17.69960 | 2521 ft | 175 kts | 158° |
| 2026-05-07 18:38 | 59.44154 | 17.71085 | 2519 ft | 165 kts | 145° |
| 2026-05-07 18:39 | 59.43280 | 17.72467 | 2519 ft | 159 kts | 133° |
| 2026-05-07 18:39 | 59.42601 | 17.74196 | 2522 ft | 160 kts | 126° |
| 2026-05-07 18:39 | 59.41948 | 17.75940 | 2520 ft | 158 kts | 126° |
| 2026-05-07 18:39 | 59.41302 | 17.77727 | 2297 ft | 162 kts | 124° |
| 2026-05-07 18:40 | 59.40659 | 17.79555 | 2041 ft | 163 kts | 126° |
| 2026-05-07 18:40 | 59.40005 | 17.81371 | 1782 ft | 163 kts | 126° |
| 2026-05-07 18:40 | 59.38985 | 17.84226 | 1364 ft | 163 kts | 126° |
| 2026-05-07 18:40 | 59.37066 | 17.89616 | 578 ft | 162 kts | 126° |
| 2026-05-07 18:41 | 59.36500 | 17.91261 | 331 ft | 126 kts | 136° |
| 2026-05-07 18:41 | 59.36037 | 17.92494 | 120 ft | 105 kts | 129° |
| 2026-05-07 18:41 | 59.35844 | 17.93096 | 21 ft | 0 kts | 105° |